sensor_id;sensor_type;location;lat;lon;timestamp;pressure;altitude;pressure_sealevel;temperature
18474;BMP180;30265;52.408;13.500;2023-03-01T00:00:50;103608.00;;;2.50
18474;BMP180;30265;52.408;13.500;2023-03-01T00:11:13;103588.00;;;2.40
18474;BMP180;30265;52.408;13.500;2023-03-01T00:21:36;103587.00;;;2.10
18474;BMP180;30265;52.408;13.500;2023-03-01T00:31:58;103586.00;;;2.10
18474;BMP180;30265;52.408;13.500;2023-03-01T00:42:22;103583.00;;;1.90
18474;BMP180;30265;52.408;13.500;2023-03-01T00:52:46;103578.00;;;2.00
18474;BMP180;30265;52.408;13.500;2023-03-01T01:03:12;103572.00;;;1.90
18474;BMP180;30265;52.408;13.500;2023-03-01T01:13:33;103561.00;;;1.70
18474;BMP180;30265;52.408;13.500;2023-03-01T01:23:57;103555.00;;;2.10
18474;BMP180;30265;52.408;13.500;2023-03-01T01:34:20;103564.00;;;1.50
18474;BMP180;30265;52.408;13.500;2023-03-01T01:44:46;103550.00;;;1.20
18474;BMP180;30265;52.408;13.500;2023-03-01T01:55:10;103563.00;;;1.30
18474;BMP180;30265;52.408;13.500;2023-03-01T02:05:38;103561.00;;;1.40
18474;BMP180;30265;52.408;13.500;2023-03-01T02:16:03;103557.00;;;1.50
18474;BMP180;30265;52.408;13.500;2023-03-01T02:26:33;103547.00;;;1.70
18474;BMP180;30265;52.408;13.500;2023-03-01T02:37:01;103551.00;;;1.20
18474;BMP180;30265;52.408;13.500;2023-03-01T02:47:24;103553.00;;;1.70
18474;BMP180;30265;52.408;13.500;2023-03-01T02:57:48;103543.00;;;1.50
18474;BMP180;30265;52.408;13.500;2023-03-01T03:08:11;103552.00;;;1.00
18474;BMP180;30265;52.408;13.500;2023-03-01T03:18:35;103550.00;;;0.80
18474;BMP180;30265;52.408;13.500;2023-03-01T03:28:57;103545.00;;;0.80
18474;BMP180;30265;52.408;13.500;2023-03-01T03:39:21;103537.00;;;0.60
18474;BMP180;30265;52.408;13.500;2023-03-01T03:49:43;103521.00;;;1.10
18474;BMP180;30265;52.408;13.500;2023-03-01T04:00:11;103516.00;;;0.70
18474;BMP180;30265;52.408;13.500;2023-03-01T04:10:36;103520.00;;;0.50
18474;BMP180;30265;52.408;13.500;2023-03-01T04:20:59;103512.00;;;0.30
18474;BMP180;30265;52.408;13.500;2023-03-01T04:31:22;103511.00;;;0.30
18474;BMP180;30265;52.408;13.500;2023-03-01T04:41:45;103502.00;;;0.50
18474;BMP180;30265;52.408;13.500;2023-03-01T04:52:07;103510.00;;;0.10
18474;BMP180;30265;52.408;13.500;2023-03-01T05:02:30;103500.00;;;0.30
18474;BMP180;30265;52.408;13.500;2023-03-01T05:12:52;103513.00;;;0.30
18474;BMP180;30265;52.408;13.500;2023-03-01T05:23:15;103505.00;;;0.40
18474;BMP180;30265;52.408;13.500;2023-03-01T05:33:37;103491.00;;;0.60
18474;BMP180;30265;52.408;13.500;2023-03-01T05:44:00;103504.00;;;0.00
18474;BMP180;30265;52.408;13.500;2023-03-01T05:54:21;103508.00;;;0.20
18474;BMP180;30265;52.408;13.500;2023-03-01T06:04:44;103501.00;;;0.40
18474;BMP180;30265;52.408;13.500;2023-03-01T06:15:08;103490.00;;;0.60
18474;BMP180;30265;52.408;13.500;2023-03-01T06:25:32;103475.00;;;1.20
18474;BMP180;30265;52.408;13.500;2023-03-01T06:35:56;103443.00;;;2.10
18474;BMP180;30265;52.408;13.500;2023-03-01T06:46:20;103447.00;;;2.70
18474;BMP180;30265;52.408;13.500;2023-03-01T06:56:41;103433.00;;;3.20
18474;BMP180;30265;52.408;13.500;2023-03-01T07:07:05;103448.00;;;3.10
18474;BMP180;30265;52.408;13.500;2023-03-01T07:17:26;103422.00;;;4.40
18474;BMP180;30265;52.408;13.500;2023-03-01T07:27:50;103402.00;;;5.60
18474;BMP180;30265;52.408;13.500;2023-03-01T07:38:12;103400.00;;;5.80
18474;BMP180;30265;52.408;13.500;2023-03-01T07:48:35;103387.00;;;6.60
18474;BMP180;30265;52.408;13.500;2023-03-01T07:58:59;103367.00;;;7.30
18474;BMP180;30265;52.408;13.500;2023-03-01T08:09:22;103358.00;;;8.00
18474;BMP180;30265;52.408;13.500;2023-03-01T08:19:43;103338.00;;;8.20
18474;BMP180;30265;52.408;13.500;2023-03-01T08:30:08;103316.00;;;8.70
18474;BMP180;30265;52.408;13.500;2023-03-01T08:40:30;103314.00;;;8.70
18474;BMP180;30265;52.408;13.500;2023-03-01T08:50:54;103301.00;;;9.80
18474;BMP180;30265;52.408;13.500;2023-03-01T09:01:17;103300.00;;;9.00
18474;BMP180;30265;52.408;13.500;2023-03-01T09:11:40;103277.00;;;10.10
18474;BMP180;30265;52.408;13.500;2023-03-01T09:22:02;103272.00;;;9.90
18474;BMP180;30265;52.408;13.500;2023-03-01T09:32:26;103262.00;;;9.90
18474;BMP180;30265;52.408;13.500;2023-03-01T09:42:55;103258.00;;;10.10
18474;BMP180;30265;52.408;13.500;2023-03-01T10:05:52;103232.00;;;12.00
18474;BMP180;30265;52.408;13.500;2023-03-01T10:16:19;103227.00;;;12.20
18474;BMP180;30265;52.408;13.500;2023-03-01T10:26:49;103227.00;;;12.60
18474;BMP180;30265;52.408;13.500;2023-03-01T10:37:14;103197.00;;;13.60
18474;BMP180;30265;52.408;13.500;2023-03-01T10:47:39;103209.00;;;12.60
18474;BMP180;30265;52.408;13.500;2023-03-01T10:58:16;103207.00;;;11.70
18474;BMP180;30265;52.408;13.500;2023-03-01T11:08:41;103190.00;;;12.30
18474;BMP180;30265;52.408;13.500;2023-03-01T11:19:18;103152.00;;;13.90
18474;BMP180;30265;52.408;13.500;2023-03-01T11:29:44;103145.00;;;12.20
18474;BMP180;30265;52.408;13.500;2023-03-01T11:40:15;103145.00;;;12.50
18474;BMP180;30265;52.408;13.500;2023-03-01T11:50:43;103134.00;;;12.80
18474;BMP180;30265;52.408;13.500;2023-03-01T12:01:16;103159.00;;;12.40
18474;BMP180;30265;52.408;13.500;2023-03-01T12:12:01;103112.00;;;14.50
18474;BMP180;30265;52.408;13.500;2023-03-01T12:22:30;103103.00;;;14.20
18474;BMP180;30265;52.408;13.500;2023-03-01T12:33:02;103091.00;;;14.10
18474;BMP180;30265;52.408;13.500;2023-03-01T12:43:36;103058.00;;;14.10
18474;BMP180;30265;52.408;13.500;2023-03-01T12:54:09;103048.00;;;14.50
18474;BMP180;30265;52.408;13.500;2023-03-01T13:04:50;103043.00;;;14.20
18474;BMP180;30265;52.408;13.500;2023-03-01T13:15:33;103050.00;;;13.40
18474;BMP180;30265;52.408;13.500;2023-03-01T13:26:07;103047.00;;;13.40
18474;BMP180;30265;52.408;13.500;2023-03-01T13:36:48;103032.00;;;13.50
18474;BMP180;30265;52.408;13.500;2023-03-01T13:47:15;103007.00;;;14.30
18474;BMP180;30265;52.408;13.500;2023-03-01T13:57:43;103012.00;;;14.10
18474;BMP180;30265;52.408;13.500;2023-03-01T14:08:18;102999.00;;;13.40
18474;BMP180;30265;52.408;13.500;2023-03-01T14:18:48;102970.00;;;14.50
18474;BMP180;30265;52.408;13.500;2023-03-01T14:29:25;102992.00;;;13.40
18474;BMP180;30265;52.408;13.500;2023-03-01T14:39:49;102951.00;;;14.30
18474;BMP180;30265;52.408;13.500;2023-03-01T14:50:20;102938.00;;;14.60
18474;BMP180;30265;52.408;13.500;2023-03-01T15:00:51;102948.00;;;13.70
18474;BMP180;30265;52.408;13.500;2023-03-01T15:11:20;102945.00;;;14.30
18474;BMP180;30265;52.408;13.500;2023-03-01T15:21:47;102950.00;;;13.80
18474;BMP180;30265;52.408;13.500;2023-03-01T15:32:26;102965.00;;;13.10
18474;BMP180;30265;52.408;13.500;2023-03-01T15:42:50;102956.00;;;13.10
18474;BMP180;30265;52.408;13.500;2023-03-01T15:53:13;102956.00;;;13.40
18474;BMP180;30265;52.408;13.500;2023-03-01T16:03:36;102956.00;;;13.00
18474;BMP180;30265;52.408;13.500;2023-03-01T16:13:58;102953.00;;;12.50
18474;BMP180;30265;52.408;13.500;2023-03-01T16:24:21;102952.00;;;12.40
18474;BMP180;30265;52.408;13.500;2023-03-01T16:34:42;102958.00;;;12.10
18474;BMP180;30265;52.408;13.500;2023-03-01T16:45:06;102969.00;;;11.50
18474;BMP180;30265;52.408;13.500;2023-03-01T16:55:42;102980.00;;;11.00
18474;BMP180;30265;52.408;13.500;2023-03-01T17:06:09;102992.00;;;10.90
18474;BMP180;30265;52.408;13.500;2023-03-01T17:16:31;103011.00;;;10.10
18474;BMP180;30265;52.408;13.500;2023-03-01T17:26:54;103019.00;;;9.60
18474;BMP180;30265;52.408;13.500;2023-03-01T17:37:15;103039.00;;;8.90
18474;BMP180;30265;52.408;13.500;2023-03-01T17:47:38;103038.00;;;8.70
18474;BMP180;30265;52.408;13.500;2023-03-01T17:58:02;103040.00;;;8.60
18474;BMP180;30265;52.408;13.500;2023-03-01T18:08:25;103050.00;;;8.50
18474;BMP180;30265;52.408;13.500;2023-03-01T18:18:46;103058.00;;;8.00
18474;BMP180;30265;52.408;13.500;2023-03-01T18:29:09;103061.00;;;7.50
18474;BMP180;30265;52.408;13.500;2023-03-01T18:39:31;103068.00;;;7.40
18474;BMP180;30265;52.408;13.500;2023-03-01T18:50:06;103069.00;;;7.30
18474;BMP180;30265;52.408;13.500;2023-03-01T19:01:17;103053.00;;;7.30
18474;BMP180;30265;52.408;13.500;2023-03-01T19:11:55;103065.00;;;6.70
18474;BMP180;30265;52.408;13.500;2023-03-01T19:22:42;103077.00;;;6.50
18474;BMP180;30265;52.408;13.500;2023-03-01T19:33:04;103080.00;;;6.20
18474;BMP180;30265;52.408;13.500;2023-03-01T19:43:26;103082.00;;;6.40
18474;BMP180;30265;52.408;13.500;2023-03-01T19:53:48;103088.00;;;6.20
18474;BMP180;30265;52.408;13.500;2023-03-01T20:04:10;103099.00;;;5.70
18474;BMP180;30265;52.408;13.500;2023-03-01T20:14:34;103099.00;;;5.80
18474;BMP180;30265;52.408;13.500;2023-03-01T20:24:55;103106.00;;;5.50
18474;BMP180;30265;52.408;13.500;2023-03-01T20:35:18;103107.00;;;5.20
18474;BMP180;30265;52.408;13.500;2023-03-01T20:45:40;103099.00;;;5.40
18474;BMP180;30265;52.408;13.500;2023-03-01T20:56:05;103083.00;;;5.40
18474;BMP180;30265;52.408;13.500;2023-03-01T21:06:27;103093.00;;;5.20
18474;BMP180;30265;52.408;13.500;2023-03-01T21:16:49;103095.00;;;5.30
18474;BMP180;30265;52.408;13.500;2023-03-01T21:27:11;103101.00;;;5.00
18474;BMP180;30265;52.408;13.500;2023-03-01T21:37:34;103092.00;;;5.40
18474;BMP180;30265;52.408;13.500;2023-03-01T21:47:56;103083.00;;;5.80
18474;BMP180;30265;52.408;13.500;2023-03-01T21:58:19;103092.00;;;5.50
18474;BMP180;30265;52.408;13.500;2023-03-01T22:08:41;103076.00;;;5.60
18474;BMP180;30265;52.408;13.500;2023-03-01T22:19:04;103098.00;;;4.90
18474;BMP180;30265;52.408;13.500;2023-03-01T22:29:27;103101.00;;;4.80
18474;BMP180;30265;52.408;13.500;2023-03-01T22:39:51;103096.00;;;4.30
18474;BMP180;30265;52.408;13.500;2023-03-01T22:50:13;103069.00;;;4.80
18474;BMP180;30265;52.408;13.500;2023-03-01T23:00:36;103078.00;;;4.40
18474;BMP180;30265;52.408;13.500;2023-03-01T23:10:58;103078.00;;;4.30
18474;BMP180;30265;52.408;13.500;2023-03-01T23:21:21;103061.00;;;4.60
18474;BMP180;30265;52.408;13.500;2023-03-01T23:31:43;103047.00;;;4.30
18474;BMP180;30265;52.408;13.500;2023-03-01T23:42:05;103053.00;;;4.20
18474;BMP180;30265;52.408;13.500;2023-03-01T23:52:36;103043.00;;;4.70
